Time;durP1;ratioP1;P1;durP2;ratioP2;P2;SDS_P1;SDS_P2;PMS_P1;PMS_P2;Temp;Humidity;BMP_temperature;BMP_pressure;BME280_temperature;BME280_humidity;BME280_pressure;Samples;Min_cycle;Max_cycle;Signal;HPM_P1;HPM_P2
2022/10/04 00:01:24;;;;;;;9.90;4.50;;;;;;;10.82;79.17;100082.33;103618;1274;94847;-60
2022/10/04 00:04:10;;;;;;;9.30;4.80;;;;;;;10.81;79.10;100081.98;103677;1274;139125;-61
2022/10/04 00:07:04;;;;;;;9.80;4.50;;;;;;;10.83;79.01;100074.84;103609;1274;108393;-59
2022/10/04 00:09:41;;;;;;;11.30;4.70;;;;;;;10.85;79.07;100074.41;103459;1274;138748;-59
2022/10/04 00:12:21;;;;;;;8.40;4.40;;;;;;;10.89;79.02;100074.13;103616;1274;108938;-62
2022/10/04 00:14:54;;;;;;;10.60;4.10;;;;;;;10.89;79.07;100073.91;103552;1275;139248;-61
2022/10/04 00:17:26;;;;;;;9.30;4.60;;;;;;;10.90;79.03;100072.83;103766;1274;94421;-59
2022/10/04 00:19:54;;;;;;;10.40;4.40;;;;;;;10.93;78.98;100069.19;103568;1274;138850;-60
2022/10/04 00:22:24;;;;;;;11.50;4.70;;;;;;;10.94;78.99;100069.85;103689;1274;99595;-61
2022/10/04 00:25:12;;;;;;;8.70;4.60;;;;;;;10.95;78.95;100073.58;103734;1274;108838;-59
2022/10/04 00:28:26;;;;;;;11.90;4.60;;;;;;;10.98;78.92;100070.77;103551;1274;138903;-59
2022/10/04 00:31:26;;;;;;;8.90;4.50;;;;;;;10.98;78.92;100066.71;103673;1274;94763;-60
2022/10/04 00:33:54;;;;;;;11.00;4.00;;;;;;;10.97;78.95;100060.16;103754;1274;138472;-59
2022/10/04 00:36:25;;;;;;;11.30;4.40;;;;;;;10.96;78.90;100056.11;103628;1274;99454;-59
2022/10/04 00:39:05;;;;;;;8.60;3.80;;;;;;;10.95;79.12;100055.60;103561;1274;139443;-60
2022/10/04 00:42:16;;;;;;;10.40;4.10;;;;;;;10.95;79.03;100054.56;103657;1274;95202;-59
2022/10/04 00:44:55;;;;;;;9.50;4.20;;;;;;;10.96;78.91;100056.27;103470;1274;139451;-60
2022/10/04 00:47:45;;;;;;;10.50;4.30;;;;;;;10.99;78.81;100055.13;103617;1274;108437;-57
2022/10/04 00:50:28;;;;;;;10.30;4.20;;;;;;;10.98;78.71;100053.91;103536;1274;139001;-59
2022/10/04 00:52:59;;;;;;;9.40;4.20;;;;;;;10.97;78.66;100059.64;103647;1274;108529;-60
2022/10/04 00:55:41;;;;;;;9.60;3.90;;;;;;;10.97;78.70;100056.43;103644;1274;95600;-59
2022/10/04 00:58:23;;;;;;;9.90;3.90;;;;;;;10.98;78.62;100064.77;103668;1274;96037;-59
2022/10/04 01:00:54;;;;;;;9.60;4.00;;;;;;;10.98;78.56;100068.30;103614;1276;108373;-61
2022/10/04 01:03:53;;;;;;;8.90;3.60;;;;;;;10.97;78.62;100067.63;103601;1276;138898;-61
2022/10/04 01:06:21;;;;;;;9.40;3.70;;;;;;;10.95;78.62;100069.27;103452;1276;108806;-59
2022/10/04 01:08:53;;;;;;;9.20;3.50;;;;;;;10.95;78.45;100063.77;103549;1276;138825;-59
2022/10/04 01:11:33;;;;;;;10.50;3.60;;;;;;;10.95;78.44;100057.58;103580;1275;94434;-61
2022/10/04 01:14:05;;;;;;;9.40;3.40;;;;;;;10.96;78.33;100053.11;103498;1274;139055;-59
2022/10/04 01:16:36;;;;;;;10.00;4.10;;;;;;;10.97;78.26;100058.21;103481;1276;99397;-60
2022/10/04 01:19:25;;;;;;;6.90;2.80;;;;;;;10.97;78.13;100054.66;103714;1275;108847;-59
2022/10/04 01:22:13;;;;;;;8.70;2.80;;;;;;;10.99;77.98;100052.81;103510;1274;138767;-59
2022/10/04 01:24:43;;;;;;;6.80;2.50;;;;;;;11.03;77.83;100051.27;103602;1276;94540;-60
2022/10/04 01:27:44;;;;;;;8.10;3.00;;;;;;;11.06;77.73;100045.29;103658;1274;139107;-60
2022/10/04 01:30:16;;;;;;;9.40;2.90;;;;;;;11.14;77.57;100046.80;103716;1274;99318;-59
2022/10/04 01:32:44;;;;;;;9.90;2.90;;;;;;;11.13;77.25;100046.83;103923;1274;138316;-61
2022/10/04 01:35:14;;;;;;;7.40;2.60;;;;;;;11.12;77.19;100046.35;103762;1274;94313;-61
2022/10/04 01:37:42;;;;;;;7.70;2.70;;;;;;;11.13;76.96;100051.45;103718;1274;141824;-59
2022/10/04 01:40:11;;;;;;;7.60;2.70;;;;;;;11.15;76.87;100054.59;103833;1274;108421;-58
2022/10/04 01:42:48;;;;;;;8.40;2.70;;;;;;;11.15;76.90;100053.17;103806;1274;99401;-61
2022/10/04 01:45:39;;;;;;;7.00;2.60;;;;;;;11.14;76.76;100045.19;103587;1274;138663;-62
2022/10/04 01:48:11;;;;;;;8.40;2.90;;;;;;;11.10;76.67;100053.35;103582;1276;94315;-58
2022/10/04 01:51:03;;;;;;;8.30;2.70;;;;;;;11.09;76.78;100059.43;103597;1277;137975;-58
2022/10/04 01:53:39;;;;;;;8.80;2.70;;;;;;;11.09;76.75;100061.72;103644;1277;108791;-60
2022/10/04 01:56:13;;;;;;;7.80;2.60;;;;;;;11.12;76.62;100064.27;103668;1275;139165;-60
2022/10/04 01:58:59;;;;;;;9.20;3.10;;;;;;;11.14;76.57;100064.23;103661;1275;108773;-61
2022/10/04 02:01:36;;;;;;;7.30;2.60;;;;;;;11.15;76.36;100068.09;103615;1277;94847;-61
2022/10/04 02:04:17;;;;;;;8.70;2.40;;;;;;;11.15;76.14;100067.73;104031;1276;94821;-59
2022/10/04 02:06:53;;;;;;;8.60;2.40;;;;;;;11.13;76.21;100071.88;103606;1276;107874;-59
2022/10/04 02:09:38;;;;;;;6.70;2.40;;;;;;;11.15;76.08;100072.89;103359;1277;138700;-58
2022/10/04 02:12:06;;;;;;;6.40;2.30;;;;;;;11.14;76.02;100075.60;103479;1276;109249;-63
2022/10/04 02:14:38;;;;;;;6.50;2.10;;;;;;;11.11;76.04;100075.15;103549;1276;430825;-59
2022/10/04 02:17:09;;;;;;;8.20;2.80;;;;;;;11.09;76.01;100071.51;103766;1274;94653;-60
2022/10/04 02:19:41;;;;;;;7.40;2.20;;;;;;;11.08;76.06;100079.17;103683;1277;139542;-60
2022/10/04 02:22:10;;;;;;;7.00;2.50;;;;;;;11.10;76.02;100077.48;103655;1277;99674;-58
2022/10/04 02:24:43;;;;;;;7.90;2.30;;;;;;;11.09;75.83;100073.79;103708;1274;108945;-59
2022/10/04 02:27:12;;;;;;;7.10;2.00;;;;;;;11.10;75.71;100074.83;103519;1274;138982;-59
2022/10/04 02:29:40;;;;;;;7.40;2.40;;;;;;;11.15;75.77;100075.55;103861;1274;94760;-58
2022/10/04 02:34:56;;;;;;;6.80;2.10;;;;;;;11.08;75.31;100068.67;103670;1277;99352;-58
2022/10/04 02:37:27;;;;;;;6.20;2.00;;;;;;;11.06;75.39;100070.51;103628;1276;109147;-60
2022/10/04 02:40:06;;;;;;;7.10;2.20;;;;;;;11.05;75.32;100071.45;103783;1276;139147;-60
2022/10/04 02:43:07;;;;;;;7.20;2.30;;;;;;;11.04;75.42;100068.27;103675;1276;94780;-60
2022/10/04 02:45:42;;;;;;;6.20;2.00;;;;;;;11.05;75.24;100068.96;103269;1276;139009;-65
2022/10/04 02:48:34;;;;;;;6.30;1.80;;;;;;;11.04;75.23;100071.66;103740;1274;99421;-68
2022/10/04 02:51:13;;;;;;;6.40;2.20;;;;;;;11.00;75.28;100077.11;103535;1275;138932;-66
2022/10/04 02:54:03;;;;;;;6.30;1.90;;;;;;;10.95;75.41;100074.61;103696;1275;94692;-59
2022/10/04 02:56:32;;;;;;;5.30;1.70;;;;;;;10.93;75.56;100077.54;103690;1277;141815;-58
2022/10/04 02:59:03;;;;;;;6.30;2.00;;;;;;;10.91;75.67;100077.23;103684;1276;108566;-59
2022/10/04 03:01:54;;;;;;;6.10;2.00;;;;;;;10.92;75.76;100078.99;103666;1276;100080;-58
2022/10/04 03:04:26;;;;;;;5.20;2.00;;;;;;;10.93;75.72;100077.19;103660;1274;108563;-62
2022/10/04 03:06:56;;;;;;;6.20;2.00;;;;;;;10.88;75.96;100078.59;103601;1276;94785;-61
2022/10/04 03:09:24;;;;;;;5.40;1.80;;;;;;;10.87;76.18;100078.05;103619;1277;139246;-60
2022/10/04 03:11:57;;;;;;;6.10;2.00;;;;;;;10.87;76.35;100077.91;103634;1276;108634;-62
2022/10/04 03:14:27;;;;;;;6.10;2.20;;;;;;;10.88;76.41;100075.56;103445;1277;138291;-57
2022/10/04 03:16:59;;;;;;;6.20;2.30;;;;;;;10.87;76.55;100076.80;103618;1276;108797;-57
2022/10/04 03:19:30;;;;;;;6.00;1.90;;;;;;;10.88;76.81;100073.06;103691;1275;95091;-59
2022/10/04 03:22:10;;;;;;;5.70;2.10;;;;;;;10.91;76.79;100073.84;103778;1277;138147;-58
2022/10/04 03:24:49;;;;;;;6.20;2.60;;;;;;;10.90;76.89;100083.14;103800;1274;108442;-59
2022/10/04 03:27:32;;;;;;;5.80;2.00;;;;;;;10.88;77.04;100086.73;103495;1275;138590;-61
2022/10/04 03:30:00;;;;;;;5.70;2.20;;;;;;;10.94;77.03;100084.23;103750;1276;107806;-61
2022/10/04 03:32:29;;;;;;;6.30;2.40;;;;;;;10.99;77.01;100089.25;103546;1274;138574;-59
2022/10/04 03:35:01;;;;;;;6.90;2.70;;;;;;;11.02;77.03;100090.73;103685;1277;94925;-60
2022/10/04 03:37:34;;;;;;;6.30;2.30;;;;;;;11.06;76.85;100091.84;103605;1275;108367;-58
2022/10/04 03:40:07;;;;;;;5.80;2.20;;;;;;;11.09;76.97;100096.55;103748;1274;138818;-61
2022/10/04 03:42:36;;;;;;;6.40;2.60;;;;;;;11.10;77.03;100093.30;103799;1274;107771;-59
2022/10/04 03:45:16;;;;;;;7.70;2.80;;;;;;;11.14;76.89;100090.86;103769;1274;138120;-60
2022/10/04 03:47:47;;;;;;;7.60;2.30;;;;;;;11.13;77.05;100091.60;103697;1277;94680;-62
2022/10/04 03:50:29;;;;;;;7.60;2.60;;;;;;;11.14;77.11;100097.61;103665;1274;138928;-61
2022/10/04 03:53:03;;;;;;;6.10;2.40;;;;;;;11.18;77.10;100095.89;103671;1277;99425;-60
2022/10/04 03:55:35;;;;;;;7.10;2.80;;;;;;;11.19;77.20;100097.44;103723;1274;108848;-59
2022/10/04 03:58:05;;;;;;;7.70;2.80;;;;;;;11.20;77.23;100095.98;103521;1277;137971;-58
2022/10/04 04:00:57;;;;;;;8.60;2.70;;;;;;;11.23;77.18;100100.89;103819;1274;94931;-61
2022/10/04 04:03:28;;;;;;;8.40;2.90;;;;;;;11.23;77.25;100102.28;103098;1277;139288;-60
2022/10/04 04:06:09;;;;;;;8.50;3.30;;;;;;;11.24;77.24;100101.38;103634;1276;99022;-59
2022/10/04 04:08:41;;;;;;;9.70;3.40;;;;;;;11.20;77.21;100104.15;103345;1277;138024;-59
2022/10/04 04:11:21;;;;;;;8.70;3.20;;;;;;;11.20;77.24;100107.55;103706;1275;95069;-60
2022/10/04 04:14:12;;;;;;;8.30;3.20;;;;;;;11.23;77.24;100111.73;103636;1275;138844;-60
2022/10/04 04:16:40;;;;;;;8.90;3.40;;;;;;;11.24;77.27;100109.56;103571;1276;108418;-59
2022/10/04 04:19:16;;;;;;;9.60;3.60;;;;;;;11.23;77.11;100103.54;103641;1276;100120;-57
2022/10/04 04:21:45;;;;;;;9.00;3.10;;;;;;;11.24;77.18;100108.13;103501;1274;139447;-60
2022/10/04 04:24:30;;;;;;;8.20;3.20;;;;;;;11.24;76.97;100108.84;103655;1275;94753;-58
2022/10/04 04:27:04;;;;;;;9.20;3.50;;;;;;;11.20;77.12;100111.42;103693;1277;138730;-61
2022/10/04 04:29:42;;;;;;;8.80;3.00;;;;;;;11.17;77.21;100115.48;103687;1277;108403;-58
2022/10/04 04:32:16;;;;;;;8.70;2.90;;;;;;;11.21;77.23;100118.89;103449;1275;141676;-59
2022/10/04 04:34:49;;;;;;;12.10;6.20;;;;;;;11.25;77.14;100121.43;103606;1277;108889;-60
2022/10/04 04:37:18;;;;;;;10.10;3.70;;;;;;;11.29;77.01;100127.17;103607;1274;94694;-59
2022/10/04 04:39:51;;;;;;;9.40;3.30;;;;;;;11.27;76.95;100128.84;103878;1274;139469;-59
2022/10/04 04:42:27;;;;;;;8.50;2.80;;;;;;;11.27;76.89;100132.55;103648;1274;109027;-59
2022/10/04 04:45:02;;;;;;;8.70;2.80;;;;;;;11.28;76.90;100127.73;103642;1274;139263;-60
2022/10/04 04:47:34;;;;;;;9.00;2.80;;;;;;;11.29;76.83;100129.98;103839;1274;107866;-59
2022/10/04 04:50:29;;;;;;;8.10;2.90;;;;;;;11.31;76.88;100131.00;103614;1274;138355;-59
2022/10/04 04:53:22;;;;;;;7.60;2.70;;;;;;;11.30;76.70;100132.08;103709;1274;95609;-57
2022/10/04 04:55:56;;;;;;;7.00;2.80;;;;;;;11.28;76.77;100133.41;103572;1274;138610;-60
2022/10/04 04:58:44;;;;;;;9.90;2.90;;;;;;;11.30;76.73;100131.38;103915;1274;99294;-59
2022/10/04 05:01:34;;;;;;;7.30;2.80;;;;;;;11.29;76.60;100131.42;103669;1274;108765;-58
2022/10/04 05:04:08;;;;;;;7.30;2.60;;;;;;;11.29;76.53;100136.21;103742;1275;138240;-60
2022/10/04 05:06:38;;;;;;;8.00;2.50;;;;;;;11.32;76.47;100132.56;103712;1275;95984;-59
2022/10/04 05:09:22;;;;;;;7.50;2.40;;;;;;;11.33;76.26;100138.40;103757;1277;138757;-59
2022/10/04 05:11:54;;;;;;;7.40;2.30;;;;;;;11.31;76.24;100144.50;103839;1277;99445;-58
2022/10/04 05:14:22;;;;;;;7.60;2.30;;;;;;;11.30;76.19;100148.27;103579;1277;138531;-58
2022/10/04 05:16:53;;;;;;;6.50;2.40;;;;;;;11.30;76.25;100154.30;103643;1275;94686;-60
2022/10/04 05:19:27;;;;;;;8.80;2.30;;;;;;;11.31;76.32;100158.90;103876;1274;94685;-59
2022/10/04 05:21:58;;;;;;;7.20;2.20;;;;;;;11.30;76.30;100160.88;103713;1276;137751;-59
2022/10/04 05:24:30;;;;;;;6.90;2.20;;;;;;;11.28;76.45;100161.50;105778;1274;98744;-60
2022/10/04 05:27:04;;;;;;;7.10;2.50;;;;;;;11.30;76.57;100161.61;103769;1274;139164;-61
2022/10/04 05:29:38;;;;;;;8.60;2.10;;;;;;;11.28;76.67;100166.80;106155;1274;94269;-59
2022/10/04 05:32:21;;;;;;;7.50;2.30;;;;;;;11.31;76.62;100166.90;107502;1274;138558;-59
2022/10/04 05:34:50;;;;;;;6.30;2.40;;;;;;;11.32;76.68;100176.11;107683;1274;108496;-59
2022/10/04 05:37:21;;;;;;;7.40;2.30;;;;;;;11.33;76.66;100178.19;104668;1274;100109;-64
2022/10/04 05:40:51;;;;;;;6.30;2.10;;;;;;;11.36;76.76;100184.14;103283;1274;138901;-58
2022/10/04 05:44:27;;;;;;;8.40;2.40;;;;;;;11.43;76.47;100185.16;104749;1281;138927;-85
2022/10/04 05:47:22;;;;;;;7.20;2.30;;;;;;;11.46;76.56;100195.20;104725;1281;95217;-83
2022/10/04 05:50:41;;;;;;;5.50;2.00;;;;;;;11.51;76.55;100197.67;103039;1290;139325;-85
2022/10/04 05:53:32;;;;;;;7.90;2.50;;;;;;;11.55;76.35;100200.96;103576;1287;98481;-86
2022/10/04 05:56:30;;;;;;;8.90;2.70;;;;;;;11.59;76.38;100204.17;103034;1290;109403;-85
2022/10/04 05:59:48;;;;;;;6.40;2.10;;;;;;;11.63;76.22;100205.47;102963;1290;94712;-84
2022/10/04 06:02:16;;;;;;;7.10;2.30;;;;;;;11.65;76.18;100212.17;103167;1287;139247;-86
2022/10/04 06:04:52;;;;;;;7.40;2.50;;;;;;;11.67;76.27;100216.35;103456;1287;108639;-86
2022/10/04 06:07:29;;;;;;;8.60;2.80;;;;;;;11.72;76.21;100216.19;103508;1288;97231;-86
2022/10/04 06:10:46;;;;;;;8.50;2.60;;;;;;;11.75;76.25;100217.00;103810;1281;138519;-86
2022/10/04 06:13:33;;;;;;;6.60;2.30;;;;;;;11.82;76.00;100220.11;104045;1282;94346;-87
2022/10/04 06:16:30;;;;;;;6.80;2.20;;;;;;;11.88;75.78;100226.33;104045;1281;139704;-86
2022/10/04 06:19:13;;;;;;;7.30;2.40;;;;;;;11.94;75.63;100230.23;104160;1282;108793;-87
2022/10/04 06:22:02;;;;;;;6.70;2.20;;;;;;;11.97;75.48;100233.36;104232;1281;138787;-86
2022/10/04 06:24:36;;;;;;;6.60;2.30;;;;;;;11.97;75.44;100233.36;104708;1281;107868;-85
2022/10/04 06:27:15;;;;;;;5.50;2.00;;;;;;;12.01;75.14;100234.98;104385;1282;139173;-86
2022/10/04 06:29:57;;;;;;;6.70;2.20;;;;;;;12.03;75.09;100238.64;104634;1281;94773;-85
2022/10/04 06:32:31;;;;;;;6.90;2.30;;;;;;;12.04;75.07;100240.20;104460;1281;138250;-84
2022/10/04 06:35:33;;;;;;;7.60;2.40;;;;;;;12.07;75.03;100242.11;104548;1281;98344;-85
2022/10/04 06:38:45;;;;;;;6.80;2.10;;;;;;;12.08;74.74;100245.95;104354;1281;139145;-84
2022/10/04 06:41:41;;;;;;;6.00;2.30;;;;;;;12.08;74.68;100245.59;104172;1281;94501;-85
2022/10/04 06:44:52;;;;;;;7.80;2.30;;;;;;;12.06;74.67;100254.22;103932;1282;139328;-85
2022/10/04 06:47:46;;;;;;;6.40;2.10;;;;;;;12.10;74.78;100257.48;104094;1282;107167;-85
2022/10/04 06:50:43;;;;;;;6.10;2.00;;;;;;;12.15;74.80;100263.15;104026;1281;139847;-88
2022/10/04 06:53:43;;;;;;;6.50;2.40;;;;;;;12.18;74.70;100264.29;104170;1281;107904;-85
2022/10/04 06:56:45;;;;;;;5.60;2.20;;;;;;;12.22;74.57;100268.23;103718;1282;138739;-84
2022/10/04 06:59:59;;;;;;;6.80;2.50;;;;;;;12.27;74.65;100274.29;104047;1281;94298;-84
2022/10/04 07:02:41;;;;;;;7.30;2.40;;;;;;;12.35;74.46;100272.05;103438;1286;139316;-84
2022/10/04 07:05:29;;;;;;;8.60;2.70;;;;;;;12.38;74.12;100275.52;103452;1287;98889;-85
2022/10/04 07:08:35;;;;;;;8.60;2.20;;;;;;;12.36;74.11;100275.57;103824;1282;138649;-84
2022/10/04 07:11:49;;;;;;;9.60;2.70;;;;;;;12.37;73.99;100282.85;104241;1281;94482;-86
2022/10/04 07:15:00;;;;;;;7.60;2.30;;;;;;;12.39;74.03;100286.52;104077;1282;139299;-83
2022/10/04 07:17:57;;;;;;;7.30;2.30;;;;;;;12.41;73.97;100288.77;104296;1281;107352;-86
2022/10/04 07:20:49;;;;;;;7.70;2.30;;;;;;;12.51;73.87;100293.91;104086;1279;139086;-86
2022/10/04 07:23:56;;;;;;;8.80;2.60;;;;;;;12.65;73.78;100296.27;104268;1279;108333;-86
2022/10/04 07:27:07;;;;;;;6.00;2.30;;;;;;;12.77;73.20;100295.84;104082;1279;138702;-86
2022/10/04 07:29:51;;;;;;;8.10;2.20;;;;;;;12.90;72.97;100301.78;104216;1281;94324;-86
2022/10/04 07:32:50;;;;;;;5.70;1.90;;;;;;;12.97;72.89;100302.05;103906;1282;140261;-87
2022/10/04 07:35:54;;;;;;;6.60;1.90;;;;;;;13.01;72.39;100310.98;104000;1282;98546;-85
2022/10/04 07:39:02;;;;;;;5.10;1.70;;;;;;;12.98;71.71;100313.75;103867;1281;138719;-86
2022/10/04 07:41:56;;;;;;;5.90;2.10;;;;;;;12.92;71.17;100312.23;103964;1282;94953;-85
2022/10/04 07:44:40;;;;;;;7.70;1.90;;;;;;;12.87;71.22;100317.20;103941;1281;138679;-86
2022/10/04 07:47:18;;;;;;;5.20;1.80;;;;;;;12.92;71.34;100322.56;104026;1281;107448;-89
2022/10/04 07:49:49;;;;;;;7.30;2.20;;;;;;;12.93;70.97;100326.45;104154;1281;99906;-86
2022/10/04 07:52:56;;;;;;;6.00;1.70;;;;;;;12.88;70.61;100329.46;104145;1281;109060;-85
2022/10/04 07:55:31;;;;;;;5.60;1.70;;;;;;;12.82;70.41;100336.83;103913;1281;94819;-85
2022/10/04 07:58:36;;;;;;;5.70;2.20;;;;;;;12.75;70.54;100337.77;104015;1281;139135;-85
2022/10/04 08:01:28;;;;;;;5.90;1.90;;;;;;;12.81;70.81;100336.50;104132;1281;107184;-85
2022/10/04 08:04:09;;;;;;;6.40;2.00;;;;;;;12.83;70.25;100341.05;104061;1281;138348;-85
2022/10/04 08:07:21;;;;;;;6.20;1.90;;;;;;;12.84;70.38;100340.82;104133;1281;107770;-85
2022/10/04 08:10:01;;;;;;;5.10;1.90;;;;;;;12.87;69.81;100345.16;103959;1282;138959;-85
2022/10/04 08:13:21;;;;;;;6.40;2.10;;;;;;;12.93;69.99;100345.67;104092;1281;94711;-85
2022/10/04 08:15:51;;;;;;;5.00;1.50;;;;;;;12.97;69.96;100345.18;103924;1281;139066;-84
2022/10/04 08:18:28;;;;;;;6.40;1.80;;;;;;;12.98;69.59;100346.55;104196;1281;99860;-85
2022/10/04 08:21:25;;;;;;;4.60;1.50;;;;;;;12.99;69.44;100349.89;103892;1281;138376;-85
2022/10/04 08:24:31;;;;;;;5.20;1.80;;;;;;;13.04;69.31;100346.35;104083;1281;94262;-85
2022/10/04 08:29:41;;;;;;;5.10;1.80;;;;;;;13.12;69.44;100345.14;103855;1281;138734;-85
2022/10/04 08:31:04;;;;;;;5.60;1.60;;;;;;;13.20;68.61;100350.91;104050;1281;107982;-84
2022/10/04 08:34:34;;;;;;;7.20;1.70;;;;;;;13.25;68.34;100351.45;103980;1281;138622;-86
2022/10/04 08:37:27;;;;;;;5.40;1.70;;;;;;;13.34;67.32;100352.34;104033;1281;108956;-85
2022/10/04 08:40:13;;;;;;;5.10;1.60;;;;;;;13.43;67.09;100357.55;103987;1281;140154;-87
2022/10/04 08:43:12;;;;;;;4.60;1.60;;;;;;;13.46;66.78;100362.95;104127;1281;94429;-85
2022/10/04 08:45:55;;;;;;;4.80;1.40;;;;;;;13.51;67.17;100367.42;104157;1281;139319;-85
2022/10/04 08:48:23;;;;;;;4.80;1.30;;;;;;;13.56;66.80;100369.73;104020;1281;99953;-84
2022/10/04 08:51:53;;;;;;;4.00;1.30;;;;;;;13.50;66.52;100369.93;103886;1282;138565;-86
2022/10/04 08:54:42;;;;;;;4.00;1.10;;;;;;;13.46;65.04;100371.17;104312;1281;94705;-85
2022/10/04 08:57:10;;;;;;;4.20;1.10;;;;;;;13.42;64.41;100375.09;104091;1282;138936;-85
2022/10/04 08:59:56;;;;;;;4.10;1.20;;;;;;;13.46;64.42;100374.19;104169;1281;105187;-86
2022/10/04 09:02:47;;;;;;;4.70;1.20;;;;;;;13.53;64.76;100376.61;104052;1280;138868;-86
2022/10/04 09:05:59;;;;;;;4.40;1.30;;;;;;;13.55;64.98;100381.89;104139;1281;107319;-86
2022/10/04 09:09:00;;;;;;;4.70;1.20;;;;;;;13.45;65.14;100388.33;103918;1281;139300;-85
2022/10/04 09:11:47;;;;;;;6.20;1.30;;;;;;;13.38;65.53;100388.78;103855;1282;94595;-85
2022/10/04 09:14:42;;;;;;;6.40;1.50;;;;;;;13.41;66.18;100391.89;104077;1281;139252;-86
2022/10/04 09:18:12;;;;;;;4.50;1.30;;;;;;;13.69;65.65;100389.57;104128;1281;99692;-85
2022/10/04 09:21:17;;;;;;;4.50;1.30;;;;;;;14.46;63.96;100383.36;103657;1281;139251;-86
2022/10/04 09:24:17;;;;;;;4.50;1.20;;;;;;;15.19;61.99;100384.67;103814;1281;94327;-85
2022/10/04 09:26:59;;;;;;;5.20;1.30;;;;;;;15.38;61.50;100388.09;104042;1281;138509;-85
2022/10/04 09:29:30;;;;;;;4.90;1.30;;;;;;;15.60;60.00;100392.25;104059;1281;108930;-85
2022/10/04 09:32:13;;;;;;;4.30;1.10;;;;;;;15.45;59.56;100400.82;104052;1281;99979;-87
2022/10/04 09:35:47;;;;;;;4.40;1.10;;;;;;;15.21;59.81;100406.20;104090;1281;107651;-84
2022/10/04 09:38:35;;;;;;;5.50;1.20;;;;;;;15.00;60.17;100409.48;104111;1281;139632;-87
2022/10/04 09:41:27;;;;;;;4.10;1.20;;;;;;;14.85;60.26;100406.04;104048;1282;94320;-86
2022/10/04 09:44:19;;;;;;;4.30;1.20;;;;;;;15.09;59.53;100408.52;104122;1282;107364;-85
2022/10/04 09:47:11;;;;;;;4.50;1.30;;;;;;;15.52;58.52;100408.35;104078;1281;98409;-87
2022/10/04 09:50:06;;;;;;;3.90;1.40;;;;;;;17.02;54.55;100408.30;103970;1281;107780;-90
2022/10/04 09:53:20;;;;;;;4.20;1.20;;;;;;;16.88;54.87;100407.27;104082;1282;94325;-87
2022/10/04 09:56:04;;;;;;;3.70;1.20;;;;;;;16.29;56.03;100416.70;103972;1282;94412;-85
2022/10/04 09:59:08;;;;;;;5.00;1.30;;;;;;;15.83;57.03;100417.85;104171;1281;109044;-87
2022/10/04 10:01:58;;;;;;;3.80;1.20;;;;;;;15.69;57.57;100417.42;104199;1281;100274;-86
2022/10/04 10:04:59;;;;;;;3.70;1.10;;;;;;;15.59;57.59;100423.46;104052;1281;138362;-87
2022/10/04 10:07:50;;;;;;;5.10;1.40;;;;;;;15.50;57.98;100421.91;104092;1281;94754;-86
2022/10/04 10:13:51;;;;;;;4.20;1.30;;;;;;;15.35;58.05;100429.01;104187;1280;107363;-85
2022/10/04 10:16:24;;;;;;;4.30;1.20;;;;;;;15.39;58.25;100424.34;103890;1281;140289;-85
2022/10/04 10:19:21;;;;;;;3.80;1.20;;;;;;;17.80;53.68;100416.39;103906;1281;107817;-86
2022/10/04 10:22:14;;;;;;;3.50;1.10;;;;;;;20.77;46.83;100418.81;104027;1281;138469;-85
2022/10/04 10:26:00;;;;;;;4.20;1.30;;;;;;;21.62;43.47;100422.90;103978;1281;94321;-86
2022/10/04 10:28:57;;;;;;;3.30;1.00;;;;;;;20.44;45.18;100427.23;103275;1288;138248;-89
2022/10/04 10:31:59;;;;;;;4.10;1.10;;;;;;;20.49;45.06;100433.00;103442;1287;96072;-87
2022/10/04 10:35:24;;;;;;;3.30;0.90;;;;;;;19.58;47.06;100436.73;103292;1290;108338;-87
2022/10/04 10:38:45;;;;;;;5.50;1.30;;;;;;;18.99;48.29;100436.96;103380;1287;94842;-87
2022/10/04 10:41:29;;;;;;;4.20;1.10;;;;;;;18.46;49.63;100437.20;103301;1287;94500;-88
2022/10/04 10:44:09;;;;;;;4.10;1.10;;;;;;;18.15;49.49;100442.39;103166;1290;107520;-86
2022/10/04 10:47:23;;;;;;;4.80;1.10;;;;;;;17.64;50.34;100442.90;103807;1281;98217;-87
2022/10/04 10:50:24;;;;;;;3.50;1.00;;;;;;;17.18;51.19;100448.77;104096;1281;106215;-86
2022/10/04 10:53:30;;;;;;;4.80;1.30;;;;;;;16.73;52.28;100458.24;104072;1281;94883;-85
2022/10/04 10:56:25;;;;;;;5.20;1.00;;;;;;;16.41;52.72;100458.75;104142;1281;94772;-85
2022/10/04 11:00:05;;;;;;;3.50;1.00;;;;;;;16.25;53.70;100458.84;104131;1281;109567;-86
2022/10/04 11:02:46;;;;;;;3.40;1.20;;;;;;;16.13;53.67;100465.67;103765;1284;138905;-88
2022/10/04 11:05:50;;;;;;;5.10;1.20;;;;;;;16.03;53.74;100461.52;104027;1282;107681;-87
2022/10/04 11:08:55;;;;;;;4.00;1.20;;;;;;;16.03;54.09;100467.21;103982;1281;138351;-87
2022/10/04 11:11:43;;;;;;;5.30;1.60;;;;;;;16.00;55.33;100465.43;104080;1281;94511;-87
2022/10/04 11:14:21;;;;;;;8.50;3.40;;;;;;;15.93;55.39;100471.67;103998;1282;107434;-86
2022/10/04 11:17:10;;;;;;;5.40;1.60;;;;;;;15.92;55.92;100476.89;104113;1281;97304;-86
2022/10/04 11:20:34;;;;;;;5.00;1.10;;;;;;;15.97;55.36;100488.83;104094;1281;105926;-86
2022/10/04 11:23:17;;;;;;;4.40;1.40;;;;;;;15.92;55.88;100486.17;104112;1281;94355;-87
2022/10/04 11:26:31;;;;;;;7.30;2.90;;;;;;;15.84;56.45;100484.80;104240;1281;94834;-87
2022/10/04 11:29:05;;;;;;;4.60;1.60;;;;;;;15.80;56.77;100487.84;104111;1284;109420;-86
2022/10/04 11:32:18;;;;;;;4.80;1.30;;;;;;;15.79;56.86;100490.20;104220;1281;98667;-91
2022/10/04 11:35:47;;;;;;;4.70;1.20;;;;;;;15.68;56.04;100487.98;104128;1281;107800;-86
2022/10/04 11:38:22;;;;;;;4.30;1.50;;;;;;;15.51;56.84;100496.65;103937;1283;140144;-84
2022/10/04 11:41:06;;;;;;;4.00;1.20;;;;;;;15.42;57.50;100501.71;104144;1281;94306;-88
2022/10/04 11:44:25;;;;;;;5.30;1.50;;;;;;;15.40;57.66;100503.92;104242;1281;107396;-86
2022/10/04 11:47:11;;;;;;;4.30;1.40;;;;;;;15.37;57.34;100504.79;103664;1282;99191;-87
2022/10/04 11:49:58;;;;;;;4.00;1.10;;;;;;;15.38;56.98;100503.81;104402;1281;105962;-86
2022/10/04 11:53:18;;;;;;;5.30;1.30;;;;;;;15.45;56.82;100506.20;103951;1281;138186;-85
2022/10/04 11:55:46;;;;;;;5.50;1.30;;;;;;;15.43;56.13;100503.45;104181;1281;94867;-87
2022/10/04 11:58:27;;;;;;;4.50;1.50;;;;;;;15.44;56.21;100501.96;103965;1281;137974;-87
2022/10/04 12:01:00;;;;;;;4.60;1.50;;;;;;;15.49;56.49;100509.98;103963;1281;98456;-86
2022/10/04 12:04:25;;;;;;;4.70;1.50;;;;;;;15.49;56.89;100511.05;103999;1280;139632;-87
2022/10/04 12:07:43;;;;;;;5.30;1.60;;;;;;;15.47;57.57;100513.82;103760;1281;94361;-88
2022/10/04 12:10:38;;;;;;;5.10;1.20;;;;;;;15.49;57.87;100519.82;103934;1281;138686;-84
2022/10/04 12:13:26;;;;;;;3.40;1.20;;;;;;;15.50;58.10;100520.30;104091;1281;108981;-86
2022/10/04 12:16:33;;;;;;;5.20;1.40;;;;;;;15.53;57.57;100525.17;103931;1282;139076;-88
2022/10/04 12:19:30;;;;;;;4.90;1.30;;;;;;;15.49;57.75;100525.38;104159;1281;107799;-86
2022/10/04 12:22:19;;;;;;;4.80;1.50;;;;;;;15.48;58.00;100530.07;104041;1281;138674;-85
2022/10/04 12:25:37;;;;;;;6.00;1.80;;;;;;;15.42;58.14;100531.41;104040;1282;95595;-86
2022/10/04 12:28:19;;;;;;;4.90;1.40;;;;;;;15.35;58.48;100530.80;103986;1281;139079;-86
2022/10/04 12:31:07;;;;;;;4.70;1.40;;;;;;;15.33;58.14;100533.04;104185;1281;98338;-85
2022/10/04 12:34:03;;;;;;;4.40;1.50;;;;;;;15.27;57.75;100537.23;103957;1281;142718;-86
2022/10/04 12:37:03;;;;;;;4.30;1.40;;;;;;;15.22;58.28;100538.53;104027;1281;95785;-86
2022/10/04 12:40:09;;;;;;;5.20;1.30;;;;;;;15.16;58.42;100542.70;104198;1281;138962;-84
2022/10/04 12:43:03;;;;;;;4.50;1.50;;;;;;;15.07;58.44;100548.10;104058;1281;109362;-86
2022/10/04 12:45:58;;;;;;;6.00;1.60;;;;;;;14.99;58.87;100550.26;104059;1281;139602;-85
2022/10/04 12:49:15;;;;;;;4.60;1.60;;;;;;;14.89;59.28;100555.67;103962;1282;108904;-87
2022/10/04 12:52:02;;;;;;;4.60;1.50;;;;;;;14.83;59.74;100560.55;104069;1281;140020;-87